createdAt,value
2023-04-16T00:01:44.554Z,99083.81
2023-04-16T00:04:14.556Z,99093.28
2023-04-16T00:06:43.199Z,99090.94
2023-04-16T00:09:12.118Z,99086.03
2023-04-16T00:11:40.911Z,99089.00
2023-04-16T00:14:09.770Z,99088.91
2023-04-16T00:16:38.707Z,99079.41
2023-04-16T00:19:08.078Z,99078.06
2023-04-16T00:21:39.966Z,99083.44
2023-04-16T00:24:08.497Z,99085.19
2023-04-16T00:26:37.359Z,99083.06
2023-04-16T00:29:06.260Z,99082.78
2023-04-16T00:31:35.814Z,99086.25
2023-04-16T00:34:04.636Z,99095.38
2023-04-16T00:36:33.197Z,99088.97
2023-04-16T00:39:03.791Z,99094.47
2023-04-16T00:41:32.676Z,99096.97
2023-04-16T00:44:01.384Z,99084.19
2023-04-16T00:46:30.244Z,99087.28
2023-04-16T00:48:59.397Z,99083.66
2023-04-16T00:51:28.001Z,99078.50
2023-04-16T00:53:56.958Z,99078.66
2023-04-16T00:56:26.879Z,99078.09
2023-04-16T00:58:56.582Z,99067.03
2023-04-16T01:01:25.630Z,99072.59
2023-04-16T01:03:54.069Z,99084.00
2023-04-16T01:06:22.780Z,99072.44
2023-04-16T01:08:51.586Z,99068.53
2023-04-16T01:11:21.097Z,99074.88
2023-04-16T01:13:51.508Z,99072.84
2023-04-16T01:16:20.388Z,99075.44
2023-04-16T01:18:49.296Z,99074.00
2023-04-16T01:21:19.599Z,99073.63
2023-04-16T01:23:48.312Z,99073.69
2023-04-16T01:26:16.751Z,99080.72
2023-04-16T01:28:45.394Z,99083.38
2023-04-16T01:31:14.476Z,99092.09
2023-04-16T01:33:43.395Z,99089.38
2023-04-16T01:36:11.858Z,99092.00
2023-04-16T01:38:42.142Z,99095.06
2023-04-16T01:41:10.541Z,99084.91
2023-04-16T01:43:40.299Z,99091.88
2023-04-16T01:46:19.408Z,99098.78
2023-04-16T01:48:48.621Z,99093.97
2023-04-16T01:51:17.458Z,99095.03
2023-04-16T01:53:48.068Z,99094.78
2023-04-16T01:56:16.795Z,99095.06
2023-04-16T01:58:46.190Z,99097.34
2023-04-16T02:01:15.222Z,99101.22
2023-04-16T02:03:44.505Z,99094.31
2023-04-16T02:06:13.480Z,99089.44
2023-04-16T02:08:42.350Z,99090.97
2023-04-16T02:11:14.710Z,99094.50
2023-04-16T02:13:43.455Z,99091.13
2023-04-16T02:16:12.305Z,99081.59
2023-04-16T02:18:41.033Z,99086.13
2023-04-16T02:21:09.813Z,99087.59
2023-04-16T02:23:41.089Z,99088.28
2023-04-16T02:26:09.933Z,99085.84
2023-04-16T02:28:41.055Z,99101.06
2023-04-16T02:31:09.753Z,99089.25
2023-04-16T02:33:38.450Z,99093.19
2023-04-16T02:36:07.608Z,99090.03
2023-04-16T02:38:37.521Z,99096.34
2023-04-16T02:41:06.552Z,99087.78
2023-04-16T02:43:34.918Z,99100.25
2023-04-16T02:46:04.978Z,99099.66
2023-04-16T02:48:33.617Z,99102.66
2023-04-16T02:51:02.521Z,99102.09
2023-04-16T02:53:31.209Z,99104.34
2023-04-16T02:55:59.666Z,99108.88
2023-04-16T02:58:28.926Z,99110.66
2023-04-16T03:00:57.744Z,99106.56
2023-04-16T03:03:28.238Z,99116.16
2023-04-16T03:05:56.691Z,99113.50
2023-04-16T03:08:25.721Z,99114.47
2023-04-16T03:10:54.609Z,99116.94
2023-04-16T03:13:23.409Z,99108.44
2023-04-16T03:15:52.296Z,99111.44
2023-04-16T03:18:20.731Z,99110.59
2023-04-16T03:20:55.445Z,99106.44
2023-04-16T03:23:24.008Z,99104.81
2023-04-16T03:25:52.499Z,99112.63
2023-04-16T03:28:21.363Z,99108.41
2023-04-16T03:30:53.753Z,99111.13
2023-04-16T03:33:22.918Z,99119.53
2023-04-16T03:35:58.359Z,99114.69
2023-04-16T03:38:27.410Z,99121.44
2023-04-16T03:40:55.955Z,99121.59
2023-04-16T03:43:24.463Z,99125.81
2023-04-16T03:45:53.308Z,99122.50
2023-04-16T03:48:21.873Z,99137.78
2023-04-16T03:50:50.514Z,99142.97
2023-04-16T03:53:20.654Z,99147.16
2023-04-16T03:55:51.333Z,99151.47
2023-04-16T03:58:21.546Z,99144.28
2023-04-16T04:00:49.894Z,99149.06
2023-04-16T04:03:19.062Z,99152.28
2023-04-16T04:05:47.622Z,99146.91
2023-04-16T04:08:16.070Z,99148.66
2023-04-16T04:10:46.969Z,99155.84
2023-04-16T04:13:15.847Z,99153.84
2023-04-16T04:15:45.395Z,99153.06
2023-04-16T04:18:14.229Z,99153.63
2023-04-16T04:20:43.337Z,99158.72
2023-04-16T04:23:12.033Z,99160.47
2023-04-16T04:25:40.806Z,99163.25
2023-04-16T04:28:11.176Z,99165.03
2023-04-16T04:30:39.777Z,99168.56
2023-04-16T04:33:08.718Z,99165.03
2023-04-16T04:35:37.457Z,99166.13
2023-04-16T04:38:06.671Z,99165.91
2023-04-16T04:40:35.447Z,99165.19
2023-04-16T04:43:04.045Z,99176.28
2023-04-16T04:45:34.195Z,99178.38
2023-04-16T04:48:03.050Z,99192.59
2023-04-16T04:50:31.836Z,99179.50
2023-04-16T04:53:00.586Z,99176.59
2023-04-16T04:55:29.354Z,99178.44
2023-04-16T04:57:58.095Z,99172.41
2023-04-16T05:00:26.625Z,99178.22
2023-04-16T05:02:56.876Z,99178.75
2023-04-16T05:05:25.825Z,99177.66
2023-04-16T05:07:54.811Z,99179.38
2023-04-16T05:10:23.780Z,99180.97
2023-04-16T05:12:52.783Z,99183.66
2023-04-16T05:15:21.660Z,99190.19
2023-04-16T05:17:51.651Z,99185.50
2023-04-16T05:20:22.822Z,99184.47
2023-04-16T05:22:51.385Z,99187.94
2023-04-16T05:25:20.397Z,99194.00
2023-04-16T05:27:49.222Z,99196.94
2023-04-16T05:30:18.279Z,99198.34
2023-04-16T05:32:49.358Z,99200.75
2023-04-16T05:35:18.497Z,99195.47
2023-04-16T05:37:48.313Z,99199.16
2023-04-16T05:40:17.345Z,99197.22
2023-04-16T05:42:46.165Z,99199.34
2023-04-16T05:45:14.596Z,99193.53
2023-04-16T05:47:43.467Z,99192.03
2023-04-16T05:50:18.292Z,99194.94
2023-04-16T05:52:49.211Z,99203.69
2023-04-16T05:55:17.968Z,99210.94
2023-04-16T05:57:46.710Z,99209.72
2023-04-16T06:00:16.018Z,99211.06
2023-04-16T06:02:45.043Z,99215.69
2023-04-16T06:05:13.809Z,99211.88
2023-04-16T06:07:42.283Z,99212.91
2023-04-16T06:10:12.829Z,99213.38
2023-04-16T06:12:41.799Z,99212.88
2023-04-16T06:15:11.368Z,99220.03
2023-04-16T06:17:40.220Z,99208.22
2023-04-16T06:20:10.503Z,99219.97
2023-04-16T06:22:39.497Z,99213.28
2023-04-16T06:25:09.115Z,99216.84
2023-04-16T06:27:39.388Z,99225.53
2023-04-16T06:30:13.467Z,99222.66
2023-04-16T06:32:44.987Z,99230.34
2023-04-16T06:35:14.157Z,99229.97
2023-04-16T06:37:42.620Z,99231.22
2023-04-16T06:40:12.185Z,99235.25
2023-04-16T06:42:44.824Z,99238.28
2023-04-16T06:45:15.116Z,99241.75
2023-04-16T06:47:43.601Z,99238.31
2023-04-16T06:50:12.683Z,99237.41
2023-04-16T06:52:42.025Z,99239.63
2023-04-16T06:55:11.523Z,99250.06
2023-04-16T06:57:44.440Z,99248.63
2023-04-16T07:00:13.526Z,99243.38
2023-04-16T07:02:42.747Z,99243.28
2023-04-16T07:05:11.626Z,99248.00
2023-04-16T07:07:40.706Z,99247.13
2023-04-16T07:10:10.295Z,99250.38
2023-04-16T07:12:39.217Z,99259.00
2023-04-16T07:15:12.358Z,99254.47
2023-04-16T07:17:41.174Z,99248.69
2023-04-16T07:20:11.557Z,99255.47
2023-04-16T07:22:40.513Z,99253.28
2023-04-16T07:25:10.381Z,99259.84
2023-04-16T07:27:42.005Z,99262.56
2023-04-16T07:30:12.906Z,99266.88
2023-04-16T07:32:41.509Z,99346.13
2023-04-16T07:35:11.433Z,99259.16
2023-04-16T07:37:40.099Z,99262.25
2023-04-16T07:40:11.155Z,99258.03
2023-04-16T07:42:40.020Z,99253.75
2023-04-16T07:45:10.551Z,99248.16
2023-04-16T07:47:40.872Z,99250.22
2023-04-16T07:50:10.695Z,99247.00
2023-04-16T07:52:41.510Z,99236.81
2023-04-16T07:55:11.254Z,99239.66
2023-04-16T07:57:40.079Z,99238.50
2023-04-16T08:00:10.286Z,99234.16
2023-04-16T08:02:40.544Z,99236.69
2023-04-16T08:05:09.579Z,99232.94
2023-04-16T08:07:38.452Z,99231.53
2023-04-16T08:10:08.437Z,99232.63
2023-04-16T08:12:37.029Z,99236.06
2023-04-16T08:15:06.148Z,99228.78
2023-04-16T08:17:35.050Z,99236.31
2023-04-16T08:20:06.504Z,99231.81
2023-04-16T08:22:37.784Z,99241.31
2023-04-16T08:25:07.291Z,99243.78
2023-04-16T08:27:36.116Z,99242.44
2023-04-16T08:30:04.996Z,99243.06
2023-04-16T08:32:33.578Z,99240.78
2023-04-16T08:35:02.357Z,99239.91
2023-04-16T08:37:32.639Z,99241.00
2023-04-16T08:40:04.539Z,99240.88
2023-04-16T08:42:37.224Z,99240.09
2023-04-16T08:45:09.816Z,99246.06
2023-04-16T08:47:38.289Z,99249.09
2023-04-16T08:50:08.507Z,99253.66
2023-04-16T08:52:41.193Z,99252.09
2023-04-16T08:55:14.215Z,99259.69
2023-04-16T08:57:48.905Z,99256.72
2023-04-16T09:00:18.160Z,99254.91
2023-04-16T09:02:47.481Z,99248.06
2023-04-16T09:05:19.087Z,99243.25
2023-04-16T09:07:50.217Z,99247.78
2023-04-16T09:10:18.872Z,99250.84
2023-04-16T09:12:47.886Z,99240.28
2023-04-16T09:15:16.656Z,99250.50
2023-04-16T09:17:45.434Z,99250.72
2023-04-16T09:20:14.476Z,99246.81
2023-04-16T09:22:44.708Z,99242.28
2023-04-16T09:25:14.781Z,99244.25
2023-04-16T09:27:43.820Z,99244.63
2023-04-16T09:30:36.848Z,99240.00
2023-04-16T09:33:16.807Z,99238.69
2023-04-16T09:35:49.306Z,99251.72
2023-04-16T09:38:18.155Z,99241.38
2023-04-16T09:40:48.611Z,99247.78
2023-04-16T09:43:19.866Z,99243.22
2023-04-16T09:45:52.475Z,99237.94
2023-04-16T09:48:31.124Z,99237.50
2023-04-16T09:51:00.021Z,99240.13
2023-04-16T09:53:30.009Z,99244.38
2023-04-16T09:56:00.976Z,99237.88
2023-04-16T09:58:30.165Z,99206.81
2023-04-16T10:01:03.293Z,99210.53
2023-04-16T10:03:32.943Z,99219.41
2023-04-16T10:06:03.136Z,99224.63
2023-04-16T10:08:32.317Z,99186.50
2023-04-16T10:11:03.837Z,99202.91
2023-04-16T10:13:33.609Z,99201.78
2023-04-16T10:16:02.791Z,99205.03
2023-04-16T10:18:31.894Z,99202.81
2023-04-16T10:21:01.943Z,99187.50
2023-04-16T10:23:30.861Z,99169.59
2023-04-16T10:26:01.929Z,99169.66
2023-04-16T10:28:35.336Z,99174.88
2023-04-16T10:31:06.400Z,99169.66
2023-04-16T10:33:37.551Z,99170.22
2023-04-16T10:36:10.683Z,99176.38
2023-04-16T10:38:43.518Z,99165.63
2023-04-16T10:41:12.625Z,99163.34
2023-04-16T10:43:44.411Z,99180.91
2023-04-16T10:46:23.194Z,99162.66
2023-04-16T10:48:54.714Z,99164.41
2023-04-16T10:51:29.453Z,99166.63
2023-04-16T10:53:59.922Z,99163.19
2023-04-16T10:56:30.558Z,99163.41
2023-04-16T10:59:00.541Z,99168.22
2023-04-16T11:01:34.033Z,99159.31
2023-04-16T11:04:23.439Z,99156.03
2023-04-16T11:07:03.388Z,99161.94
2023-04-16T11:09:53.765Z,99153.06
2023-04-16T11:12:24.028Z,99150.88
2023-04-16T11:14:55.107Z,99145.06
2023-04-16T11:17:24.141Z,99152.63
2023-04-16T11:19:53.610Z,99142.38
2023-04-16T11:22:22.502Z,99137.03
2023-04-16T11:24:56.317Z,99141.94
2023-04-16T11:27:25.174Z,99148.34
2023-04-16T11:30:02.347Z,99141.91
2023-04-16T11:32:33.143Z,99127.66
2023-04-16T11:35:03.846Z,99123.19
2023-04-16T11:37:36.331Z,99136.69
2023-04-16T11:40:06.974Z,99132.50
2023-04-16T11:42:37.308Z,99132.56
2023-04-16T11:45:09.295Z,99137.22
2023-04-16T11:47:46.739Z,99132.72
2023-04-16T11:50:21.161Z,99115.16
2023-04-16T11:52:50.789Z,99108.28
2023-04-16T11:55:19.399Z,99098.84
2023-04-16T11:57:48.599Z,99114.88
2023-04-16T12:00:19.161Z,99113.69
2023-04-16T12:02:54.399Z,99082.34
2023-04-16T12:05:32.106Z,99099.75
2023-04-16T12:08:02.716Z,99092.56
2023-04-16T12:10:31.599Z,99096.66
2023-04-16T12:13:12.656Z,99075.88
2023-04-16T12:15:49.532Z,99078.06
2023-04-16T12:18:20.379Z,99084.94
2023-04-16T12:20:49.175Z,99086.84
2023-04-16T12:23:32.344Z,99080.69
2023-04-16T12:26:10.910Z,99046.97
2023-04-16T12:28:41.767Z,99041.91
2023-04-16T12:31:12.056Z,99065.03
2023-04-16T12:33:40.619Z,99040.47
2023-04-16T12:36:19.072Z,99063.41
2023-04-16T12:38:47.888Z,99067.31
2023-04-16T12:41:16.208Z,99057.78
2023-04-16T12:43:44.632Z,99065.28
2023-04-16T12:46:15.315Z,99067.00
2023-04-16T12:48:44.037Z,99075.91
2023-04-16T12:51:12.925Z,99056.19
2023-04-16T12:53:41.778Z,99051.25
2023-04-16T12:56:10.633Z,99054.84
2023-04-16T12:58:39.349Z,99067.06
2023-04-16T13:01:08.365Z,99060.78
2023-04-16T13:03:41.615Z,99058.56
2023-04-16T13:06:10.291Z,99050.69
2023-04-16T13:08:39.430Z,99033.34
2023-04-16T13:11:08.219Z,99043.91
2023-04-16T13:13:37.009Z,99033.69
2023-04-16T13:16:08.451Z,99040.81
2023-04-16T13:18:39.502Z,99023.88
2023-04-16T13:21:08.377Z,99038.19
2023-04-16T13:23:37.427Z,99014.78
2023-04-16T13:26:06.364Z,99003.59
2023-04-16T13:28:35.298Z,98988.25
2023-04-16T13:31:05.698Z,98998.38
2023-04-16T13:33:35.288Z,98987.00
2023-04-16T13:36:06.344Z,98980.66
2023-04-16T13:38:35.694Z,98980.28
2023-04-16T13:41:04.768Z,98977.41
2023-04-16T13:43:33.571Z,98996.13
2023-04-16T13:46:02.144Z,98949.28
2023-04-16T13:48:30.621Z,98953.03
2023-04-16T13:50:59.561Z,98945.94
2023-04-16T13:53:29.345Z,98971.84
2023-04-16T13:55:57.898Z,98954.22
2023-04-16T13:58:26.741Z,98961.72
2023-04-16T14:00:56.148Z,98969.31
2023-04-16T14:03:26.356Z,98952.91
2023-04-16T14:05:55.142Z,98959.84
2023-04-16T14:08:23.961Z,98967.38
2023-04-16T14:10:55.810Z,98968.59
2023-04-16T14:13:25.022Z,98971.03
2023-04-16T14:15:55.781Z,98976.66
2023-04-16T14:18:24.694Z,98953.34
2023-04-16T14:20:53.635Z,98958.03
2023-04-16T14:23:22.202Z,98963.59
2023-04-16T14:25:50.733Z,98967.63
2023-04-16T14:28:21.189Z,98972.94
2023-04-16T14:30:49.910Z,98951.88
2023-04-16T14:33:18.245Z,98954.06
2023-04-16T14:35:46.941Z,98962.59
2023-04-16T14:38:15.740Z,98966.72
2023-04-16T14:40:44.605Z,98968.50
2023-04-16T14:43:13.053Z,98961.75
2023-04-16T14:45:43.638Z,98965.44
2023-04-16T14:48:12.622Z,98956.50
2023-04-16T14:50:44.011Z,98959.03
2023-04-16T14:53:13.246Z,98956.72
2023-04-16T14:55:42.477Z,98959.81
2023-04-16T14:58:11.258Z,98966.34
2023-04-16T15:00:40.058Z,98946.25
2023-04-16T15:03:16.285Z,98946.19
2023-04-16T15:05:45.122Z,98936.78
2023-04-16T15:08:14.106Z,98933.13
2023-04-16T15:10:43.363Z,98996.09
2023-04-16T15:13:13.691Z,98929.28
2023-04-16T15:15:42.419Z,98921.13
2023-04-16T15:18:13.099Z,98926.97
2023-04-16T15:20:43.347Z,98927.25
2023-04-16T15:23:12.337Z,98922.56
2023-04-16T15:25:41.530Z,98924.97
2023-04-16T15:28:10.255Z,98933.78
2023-04-16T15:30:40.475Z,98941.41
2023-04-16T15:33:09.800Z,98940.50
2023-04-16T15:35:41.442Z,98942.22
2023-04-16T15:38:10.120Z,98946.13
2023-04-16T15:40:38.575Z,98952.25
2023-04-16T15:43:07.597Z,98950.63
2023-04-16T15:45:39.206Z,98949.03
2023-04-16T15:48:08.164Z,98951.50
2023-04-16T15:50:36.720Z,98956.97
2023-04-16T15:53:07.359Z,98965.03
2023-04-16T15:55:36.705Z,98968.19
2023-04-16T15:58:05.773Z,98966.38
2023-04-16T16:00:37.268Z,98976.16
2023-04-16T16:03:06.422Z,98979.47
2023-04-16T16:05:35.154Z,98992.94
2023-04-16T16:08:03.784Z,98995.59
2023-04-16T16:10:34.034Z,98999.44
2023-04-16T16:13:08.002Z,98999.91
2023-04-16T16:15:36.937Z,99003.03
2023-04-16T16:18:06.748Z,99008.06
2023-04-16T16:20:36.709Z,99008.63
2023-04-16T16:23:05.516Z,99011.00
2023-04-16T16:25:35.577Z,99005.59
2023-04-16T16:28:06.741Z,99014.06
2023-04-16T16:30:35.607Z,99016.13
2023-04-16T16:33:04.666Z,99014.50
2023-04-16T16:35:33.309Z,99013.66
2023-04-16T16:38:02.058Z,99016.47
2023-04-16T16:40:30.622Z,99016.22
2023-04-16T16:43:01.441Z,99018.19
2023-04-16T16:45:30.782Z,99029.47
2023-04-16T16:47:59.426Z,99022.94
2023-04-16T16:50:28.152Z,99021.66
2023-04-16T16:52:57.967Z,99020.03
2023-04-16T16:55:26.812Z,99034.00
2023-04-16T16:57:56.155Z,99029.63
2023-04-16T17:00:26.738Z,99032.03
2023-04-16T17:02:55.491Z,99034.06
2023-04-16T17:05:25.182Z,99041.91
2023-04-16T17:07:55.131Z,99043.06
2023-04-16T17:10:24.415Z,99054.00
2023-04-16T17:12:53.523Z,99052.22
2023-04-16T17:15:22.323Z,99052.72
2023-04-16T17:17:52.657Z,99057.38
2023-04-16T17:20:21.510Z,99059.28
2023-04-16T17:22:51.238Z,99062.25
2023-04-16T17:25:20.445Z,99074.22
2023-04-16T17:27:49.378Z,99076.09
2023-04-16T17:30:18.093Z,99076.56
2023-04-16T17:32:46.902Z,99077.34
2023-04-16T17:35:17.248Z,99074.53
2023-04-16T17:37:49.066Z,99076.38
2023-04-16T17:40:18.559Z,99084.19
2023-04-16T17:42:47.279Z,99086.06
2023-04-16T17:45:16.117Z,99088.06
2023-04-16T17:47:45.060Z,99085.78
2023-04-16T17:50:14.082Z,99083.69
2023-04-16T17:52:44.679Z,99094.84
2023-04-16T17:55:13.728Z,99098.50
2023-04-16T17:57:42.576Z,99097.44
2023-04-16T18:00:14.508Z,99102.66
2023-04-16T18:02:43.907Z,99107.81
2023-04-16T18:05:12.862Z,99107.84
2023-04-16T18:07:42.004Z,99108.59
2023-04-16T18:10:12.640Z,99104.59
2023-04-16T18:12:41.708Z,99111.75
2023-04-16T18:15:11.527Z,99101.56
2023-04-16T18:17:40.666Z,99106.13
2023-04-16T18:20:12.636Z,99107.03
2023-04-16T18:22:41.613Z,99102.59
2023-04-16T18:25:12.135Z,99105.31
2023-04-16T18:27:41.822Z,99112.44
2023-04-16T18:30:19.959Z,99112.91
2023-04-16T18:33:11.461Z,99111.50
2023-04-16T18:35:41.469Z,99116.81
2023-04-16T18:38:10.562Z,99113.31
2023-04-16T18:40:41.733Z,99118.63
2023-04-16T18:43:13.255Z,99109.75
2023-04-16T18:45:42.922Z,99115.50
2023-04-16T18:48:13.316Z,99108.91
2023-04-16T18:50:41.660Z,99111.66
2023-04-16T18:53:10.179Z,99126.28
2023-04-16T18:55:38.607Z,99118.91
2023-04-16T18:58:09.016Z,99114.91
2023-04-16T19:00:37.943Z,99117.59
2023-04-16T19:03:07.772Z,99106.81
2023-04-16T19:05:36.544Z,99112.28
2023-04-16T19:08:05.496Z,99109.22
2023-04-16T19:10:34.207Z,99111.53
2023-04-16T19:13:05.536Z,99105.88
2023-04-16T19:15:36.446Z,99097.47
2023-04-16T19:18:08.686Z,99101.72
2023-04-16T19:20:45.516Z,99103.34
2023-04-16T19:23:16.684Z,99102.41
2023-04-16T19:25:46.437Z,99098.13
2023-04-16T19:28:18.516Z,99102.63
2023-04-16T19:30:54.518Z,99091.56
2023-04-16T19:33:31.598Z,99081.97
2023-04-16T19:36:04.104Z,99084.75
2023-04-16T19:38:32.606Z,99084.66
2023-04-16T19:41:06.313Z,99073.50
2023-04-16T19:43:39.240Z,99076.84
2023-04-16T19:46:09.548Z,99079.06
2023-04-16T19:48:40.528Z,99080.06
2023-04-16T19:51:11.263Z,99070.75
2023-04-16T19:53:41.256Z,99072.56
2023-04-16T19:56:10.089Z,99065.03
2023-04-16T19:58:41.284Z,99068.84
2023-04-16T20:01:32.861Z,99061.31
2023-04-16T20:04:03.460Z,99053.22
2023-04-16T20:06:32.490Z,99045.13
2023-04-16T20:09:01.609Z,99039.81
2023-04-16T20:11:31.906Z,99032.50
2023-04-16T20:14:03.465Z,99030.06
2023-04-16T20:16:38.958Z,99020.66
2023-04-16T20:19:10.776Z,99030.38
2023-04-16T20:21:43.369Z,99022.19
2023-04-16T20:24:15.573Z,99033.28
2023-04-16T20:26:59.828Z,99028.22
2023-04-16T20:29:28.724Z,99030.81
2023-04-16T20:32:03.124Z,99018.81
2023-04-16T20:34:31.775Z,99023.34
2023-04-16T20:37:00.859Z,99016.44
2023-04-16T20:39:42.641Z,99015.31
2023-04-16T20:42:16.934Z,99014.06
2023-04-16T20:44:51.670Z,99018.00
2023-04-16T20:47:22.891Z,99023.22
2023-04-16T20:49:53.053Z,99014.22
2023-04-16T20:52:24.634Z,99026.09
2023-04-16T20:54:53.854Z,99021.69
2023-04-16T20:57:22.630Z,99025.81
2023-04-16T20:59:51.530Z,99022.44
2023-04-16T21:02:23.907Z,99021.06
2023-04-16T21:04:55.742Z,99014.34
2023-04-16T21:07:24.634Z,99016.81
2023-04-16T21:09:53.434Z,99019.41
2023-04-16T21:12:22.168Z,99021.88
2023-04-16T21:14:51.040Z,99016.09
2023-04-16T21:17:19.765Z,99017.94
2023-04-16T21:19:50.171Z,99022.81
2023-04-16T21:22:18.849Z,99016.53
2023-04-16T21:24:47.265Z,99022.19
2023-04-16T21:27:15.803Z,99013.94
2023-04-16T21:29:44.529Z,99017.75
2023-04-16T21:32:13.350Z,99012.41
2023-04-16T21:34:41.681Z,99009.06
2023-04-16T21:37:11.641Z,99017.16
2023-04-16T21:39:40.668Z,99023.78
2023-04-16T21:42:09.486Z,99016.94
2023-04-16T21:44:37.814Z,99009.94
2023-04-16T21:47:06.701Z,99011.66
2023-04-16T21:49:35.675Z,99008.78
2023-04-16T21:52:04.173Z,99008.00
2023-04-16T21:54:34.521Z,99007.63
2023-04-16T21:57:03.397Z,99012.22
2023-04-16T21:59:32.412Z,99003.38
2023-04-16T22:02:01.311Z,99010.28
2023-04-16T22:04:37.275Z,99004.31
2023-04-16T22:07:06.019Z,98998.97
2023-04-16T22:09:36.280Z,99001.78
2023-04-16T22:12:07.005Z,98999.75
2023-04-16T22:14:36.328Z,98997.16
2023-04-16T22:17:04.970Z,98995.19
2023-04-16T22:19:34.895Z,98995.50
2023-04-16T22:22:03.576Z,98989.06
2023-04-16T22:24:33.675Z,98980.66
2023-04-16T22:27:04.347Z,98980.66
2023-04-16T22:29:33.581Z,98982.16
2023-04-16T22:32:02.389Z,98971.16
2023-04-16T22:34:31.120Z,98965.22
2023-04-16T22:37:01.454Z,98961.69
2023-04-16T22:39:30.888Z,98955.72
2023-04-16T22:41:59.846Z,98961.78
2023-04-16T22:44:30.317Z,98952.63
2023-04-16T22:46:59.341Z,98947.75
2023-04-16T22:49:33.123Z,98951.22
2023-04-16T22:52:03.009Z,98945.53
2023-04-16T22:54:31.968Z,98945.22
2023-04-16T22:57:01.108Z,98942.75
2023-04-16T22:59:31.674Z,98948.56
2023-04-16T23:02:00.249Z,98946.63
2023-04-16T23:04:29.035Z,98943.06
2023-04-16T23:06:57.801Z,98940.72
2023-04-16T23:09:26.246Z,98947.63
2023-04-16T23:11:55.034Z,98954.41
2023-04-16T23:14:24.157Z,98951.03
2023-04-16T23:16:54.348Z,98943.88
2023-04-16T23:19:22.815Z,98944.94
2023-04-16T23:21:51.856Z,98950.50
2023-04-16T23:24:20.485Z,98944.09
2023-04-16T23:26:52.515Z,98939.97
2023-04-16T23:29:21.591Z,98945.63
2023-04-16T23:31:50.208Z,98942.34
2023-04-16T23:34:21.114Z,98963.25
2023-04-16T23:36:50.149Z,98956.66
2023-04-16T23:39:19.219Z,98954.97
2023-04-16T23:41:47.592Z,98960.50
2023-04-16T23:44:16.530Z,98960.78
2023-04-16T23:46:45.327Z,98957.63
2023-04-16T23:49:13.856Z,98958.69
2023-04-16T23:51:44.329Z,98961.19
2023-04-16T23:54:13.016Z,98963.66
2023-04-16T23:56:41.848Z,98961.97
2023-04-16T23:59:11.141Z,98962.16
